sensor_id;sensor_type;location;lat;lon;timestamp;temperature;humidity
26230;DHT22;13960;50.860;4.352;2022-11-24T00:00:49;9.70;99.90
26230;DHT22;13960;50.860;4.352;2022-11-24T00:03:14;9.70;99.90
26230;DHT22;13960;50.860;4.352;2022-11-24T00:05:40;9.60;99.90
26230;DHT22;13960;50.860;4.352;2022-11-24T00:08:05;9.60;99.90
26230;DHT22;13960;50.860;4.352;2022-11-24T00:10:31;9.70;99.90
26230;DHT22;13960;50.860;4.352;2022-11-24T00:12:57;9.70;99.90
26230;DHT22;13960;50.860;4.352;2022-11-24T00:15:23;9.70;99.90
26230;DHT22;13960;50.860;4.352;2022-11-24T00:17:50;9.70;99.90
26230;DHT22;13960;50.860;4.352;2022-11-24T00:20:18;9.70;99.90
26230;DHT22;13960;50.860;4.352;2022-11-24T00:22:45;9.70;99.90
26230;DHT22;13960;50.860;4.352;2022-11-24T00:25:11;9.70;99.90
26230;DHT22;13960;50.860;4.352;2022-11-24T00:27:37;9.60;99.90
26230;DHT22;13960;50.860;4.352;2022-11-24T00:30:03;9.70;99.90
26230;DHT22;13960;50.860;4.352;2022-11-24T00:32:28;9.70;99.90
26230;DHT22;13960;50.860;4.352;2022-11-24T00:34:55;9.60;99.90
26230;DHT22;13960;50.860;4.352;2022-11-24T00:39:50;9.70;99.90
26230;DHT22;13960;50.860;4.352;2022-11-24T00:44:47;9.60;99.90
26230;DHT22;13960;50.860;4.352;2022-11-24T00:49:42;9.60;99.90
26230;DHT22;13960;50.860;4.352;2022-11-24T00:52:09;9.60;99.90
26230;DHT22;13960;50.860;4.352;2022-11-24T00:54:36;9.60;99.90
26230;DHT22;13960;50.860;4.352;2022-11-24T00:57:04;9.60;99.90
26230;DHT22;13960;50.860;4.352;2022-11-24T00:59:30;9.60;99.90
26230;DHT22;13960;50.860;4.352;2022-11-24T01:01:58;9.60;99.90
26230;DHT22;13960;50.860;4.352;2022-11-24T01:04:25;9.60;99.90
26230;DHT22;13960;50.860;4.352;2022-11-24T01:06:52;9.60;99.90
26230;DHT22;13960;50.860;4.352;2022-11-24T01:09:18;9.60;99.90
26230;DHT22;13960;50.860;4.352;2022-11-24T01:11:44;9.60;99.90
26230;DHT22;13960;50.860;4.352;2022-11-24T01:14:30;9.60;99.90
26230;DHT22;13960;50.860;4.352;2022-11-24T01:16:58;9.60;99.90
26230;DHT22;13960;50.860;4.352;2022-11-24T01:19:24;9.60;99.90
26230;DHT22;13960;50.860;4.352;2022-11-24T01:21:50;9.60;99.90
26230;DHT22;13960;50.860;4.352;2022-11-24T01:24:15;9.60;99.90
26230;DHT22;13960;50.860;4.352;2022-11-24T01:26:41;9.60;99.90
26230;DHT22;13960;50.860;4.352;2022-11-24T01:29:06;9.70;99.90
26230;DHT22;13960;50.860;4.352;2022-11-24T01:31:32;9.60;99.90
26230;DHT22;13960;50.860;4.352;2022-11-24T01:33:59;9.60;99.90
26230;DHT22;13960;50.860;4.352;2022-11-24T01:36:25;9.70;99.90
26230;DHT22;13960;50.860;4.352;2022-11-24T01:38:51;9.70;99.90
26230;DHT22;13960;50.860;4.352;2022-11-24T01:41:17;9.70;99.90
26230;DHT22;13960;50.860;4.352;2022-11-24T01:43:45;9.60;99.90
26230;DHT22;13960;50.860;4.352;2022-11-24T01:46:28;9.60;99.90
26230;DHT22;13960;50.860;4.352;2022-11-24T01:49:11;9.70;99.90
26230;DHT22;13960;50.860;4.352;2022-11-24T01:51:48;9.70;99.90
26230;DHT22;13960;50.860;4.352;2022-11-24T01:54:23;9.70;99.90
26230;DHT22;13960;50.860;4.352;2022-11-24T01:56:50;9.60;99.90
26230;DHT22;13960;50.860;4.352;2022-11-24T01:59:19;9.70;99.90
26230;DHT22;13960;50.860;4.352;2022-11-24T02:01:45;9.60;99.90
26230;DHT22;13960;50.860;4.352;2022-11-24T02:04:15;9.70;99.90
26230;DHT22;13960;50.860;4.352;2022-11-24T02:06:43;9.70;99.90
26230;DHT22;13960;50.860;4.352;2022-11-24T02:09:12;9.80;99.90
26230;DHT22;13960;50.860;4.352;2022-11-24T02:11:39;9.80;99.90
26230;DHT22;13960;50.860;4.352;2022-11-24T02:14:08;9.70;99.90
26230;DHT22;13960;50.860;4.352;2022-11-24T02:16:34;9.70;99.90
26230;DHT22;13960;50.860;4.352;2022-11-24T02:19:02;9.80;99.90
26230;DHT22;13960;50.860;4.352;2022-11-24T02:21:32;9.80;99.90
26230;DHT22;13960;50.860;4.352;2022-11-24T02:28:53;9.90;99.90
26230;DHT22;13960;50.860;4.352;2022-11-24T02:31:19;9.90;99.90
26230;DHT22;13960;50.860;4.352;2022-11-24T02:33:48;9.90;99.90
26230;DHT22;13960;50.860;4.352;2022-11-24T02:36:13;9.90;99.90
26230;DHT22;13960;50.860;4.352;2022-11-24T02:38:39;10.00;99.90
26230;DHT22;13960;50.860;4.352;2022-11-24T02:41:05;9.90;99.90
26230;DHT22;13960;50.860;4.352;2022-11-24T02:43:36;9.90;99.90
26230;DHT22;13960;50.860;4.352;2022-11-24T02:46:02;9.90;99.90
26230;DHT22;13960;50.860;4.352;2022-11-24T02:48:27;9.90;99.90
26230;DHT22;13960;50.860;4.352;2022-11-24T02:50:54;9.90;99.90
26230;DHT22;13960;50.860;4.352;2022-11-24T02:53:19;9.80;99.90
26230;DHT22;13960;50.860;4.352;2022-11-24T02:55:46;9.80;99.90
26230;DHT22;13960;50.860;4.352;2022-11-24T02:58:14;9.80;99.90
26230;DHT22;13960;50.860;4.352;2022-11-24T03:00:40;9.80;99.90
26230;DHT22;13960;50.860;4.352;2022-11-24T03:03:05;9.80;99.90
26230;DHT22;13960;50.860;4.352;2022-11-24T03:05:32;9.80;99.90
26230;DHT22;13960;50.860;4.352;2022-11-24T03:07:59;9.80;99.90
26230;DHT22;13960;50.860;4.352;2022-11-24T03:10:26;9.70;99.90
26230;DHT22;13960;50.860;4.352;2022-11-24T03:12:53;9.70;99.90
26230;DHT22;13960;50.860;4.352;2022-11-24T03:15:19;9.70;99.90
26230;DHT22;13960;50.860;4.352;2022-11-24T03:17:45;9.70;99.90
26230;DHT22;13960;50.860;4.352;2022-11-24T03:20:11;9.70;99.90
26230;DHT22;13960;50.860;4.352;2022-11-24T03:22:37;9.80;99.90
26230;DHT22;13960;50.860;4.352;2022-11-24T03:25:03;9.80;99.90
26230;DHT22;13960;50.860;4.352;2022-11-24T03:27:30;9.80;99.90
26230;DHT22;13960;50.860;4.352;2022-11-24T03:32:24;9.70;99.90
26230;DHT22;13960;50.860;4.352;2022-11-24T03:34:52;9.80;99.90
26230;DHT22;13960;50.860;4.352;2022-11-24T03:37:19;9.70;99.90
26230;DHT22;13960;50.860;4.352;2022-11-24T03:39:47;9.60;99.90
26230;DHT22;13960;50.860;4.352;2022-11-24T03:44:44;9.50;99.90
26230;DHT22;13960;50.860;4.352;2022-11-24T03:47:10;9.50;99.90
26230;DHT22;13960;50.860;4.352;2022-11-24T03:49:38;9.40;99.90
26230;DHT22;13960;50.860;4.352;2022-11-24T03:52:04;9.40;99.90
26230;DHT22;13960;50.860;4.352;2022-11-24T03:54:30;9.40;99.90
26230;DHT22;13960;50.860;4.352;2022-11-24T03:56:56;9.30;99.90
26230;DHT22;13960;50.860;4.352;2022-11-24T04:01:52;9.30;99.90
26230;DHT22;13960;50.860;4.352;2022-11-24T04:04:25;9.30;99.90
26230;DHT22;13960;50.860;4.352;2022-11-24T04:06:55;9.30;99.90
26230;DHT22;13960;50.860;4.352;2022-11-24T04:09:21;9.30;99.90
26230;DHT22;13960;50.860;4.352;2022-11-24T04:11:50;9.30;99.90
26230;DHT22;13960;50.860;4.352;2022-11-24T04:17:03;9.30;99.90
26230;DHT22;13960;50.860;4.352;2022-11-24T04:19:32;9.20;99.90
26230;DHT22;13960;50.860;4.352;2022-11-24T04:21:57;9.10;99.90
26230;DHT22;13960;50.860;4.352;2022-11-24T04:24:25;9.10;99.90
26230;DHT22;13960;50.860;4.352;2022-11-24T04:26:54;9.00;99.90
26230;DHT22;13960;50.860;4.352;2022-11-24T04:29:20;9.00;99.90
26230;DHT22;13960;50.860;4.352;2022-11-24T04:31:46;9.00;99.90
26230;DHT22;13960;50.860;4.352;2022-11-24T04:34:12;9.00;99.90
26230;DHT22;13960;50.860;4.352;2022-11-24T04:36:39;9.00;99.90
26230;DHT22;13960;50.860;4.352;2022-11-24T04:39:05;9.00;99.90
26230;DHT22;13960;50.860;4.352;2022-11-24T04:41:31;9.10;99.90
26230;DHT22;13960;50.860;4.352;2022-11-24T04:43:57;9.00;99.90
26230;DHT22;13960;50.860;4.352;2022-11-24T04:46:26;9.00;99.90
26230;DHT22;13960;50.860;4.352;2022-11-24T04:48:57;9.00;99.90
26230;DHT22;13960;50.860;4.352;2022-11-24T04:51:26;8.90;99.90
26230;DHT22;13960;50.860;4.352;2022-11-24T04:53:53;8.80;99.90
26230;DHT22;13960;50.860;4.352;2022-11-24T04:56:20;8.80;99.90
26230;DHT22;13960;50.860;4.352;2022-11-24T04:58:49;8.70;99.90
26230;DHT22;13960;50.860;4.352;2022-11-24T05:01:15;8.70;99.90
26230;DHT22;13960;50.860;4.352;2022-11-24T05:03:42;8.70;99.90
26230;DHT22;13960;50.860;4.352;2022-11-24T05:06:08;8.70;99.90
26230;DHT22;13960;50.860;4.352;2022-11-24T05:08:35;8.60;99.90
26230;DHT22;13960;50.860;4.352;2022-11-24T05:11:04;8.60;99.90
26230;DHT22;13960;50.860;4.352;2022-11-24T05:13:30;8.60;99.90
26230;DHT22;13960;50.860;4.352;2022-11-24T05:15:57;8.50;99.90
26230;DHT22;13960;50.860;4.352;2022-11-24T05:18:25;8.50;99.90
26230;DHT22;13960;50.860;4.352;2022-11-24T05:20:50;8.50;99.90
26230;DHT22;13960;50.860;4.352;2022-11-24T05:23:16;8.50;99.90
26230;DHT22;13960;50.860;4.352;2022-11-24T05:25:41;8.50;99.90
26230;DHT22;13960;50.860;4.352;2022-11-24T05:28:13;8.50;99.90
26230;DHT22;13960;50.860;4.352;2022-11-24T05:30:39;8.50;99.90
26230;DHT22;13960;50.860;4.352;2022-11-24T05:33:15;8.50;99.90
26230;DHT22;13960;50.860;4.352;2022-11-24T05:35:46;8.50;99.90
26230;DHT22;13960;50.860;4.352;2022-11-24T05:38:13;8.50;99.90
26230;DHT22;13960;50.860;4.352;2022-11-24T05:40:40;8.50;99.90
26230;DHT22;13960;50.860;4.352;2022-11-24T05:43:15;8.40;99.90
26230;DHT22;13960;50.860;4.352;2022-11-24T05:48:11;8.50;99.90
26230;DHT22;13960;50.860;4.352;2022-11-24T05:50:39;8.50;99.90
26230;DHT22;13960;50.860;4.352;2022-11-24T05:53:05;8.50;99.90
26230;DHT22;13960;50.860;4.352;2022-11-24T05:55:31;8.50;99.90
26230;DHT22;13960;50.860;4.352;2022-11-24T05:58:00;8.50;99.90
26230;DHT22;13960;50.860;4.352;2022-11-24T06:00:26;8.50;99.90
26230;DHT22;13960;50.860;4.352;2022-11-24T06:02:52;8.50;99.90
26230;DHT22;13960;50.860;4.352;2022-11-24T06:05:19;8.50;99.90
26230;DHT22;13960;50.860;4.352;2022-11-24T06:07:47;8.50;99.90
26230;DHT22;13960;50.860;4.352;2022-11-24T06:10:14;8.50;99.90
26230;DHT22;13960;50.860;4.352;2022-11-24T06:12:40;8.40;99.90
26230;DHT22;13960;50.860;4.352;2022-11-24T06:15:08;8.40;99.90
26230;DHT22;13960;50.860;4.352;2022-11-24T06:17:34;8.50;99.90
26230;DHT22;13960;50.860;4.352;2022-11-24T06:22:30;8.40;99.90
26230;DHT22;13960;50.860;4.352;2022-11-24T06:24:57;8.30;99.90
26230;DHT22;13960;50.860;4.352;2022-11-24T06:27:24;8.30;99.90
26230;DHT22;13960;50.860;4.352;2022-11-24T06:29:51;8.30;99.90
26230;DHT22;13960;50.860;4.352;2022-11-24T06:34:47;8.30;99.90
26230;DHT22;13960;50.860;4.352;2022-11-24T06:37:12;8.30;99.90
26230;DHT22;13960;50.860;4.352;2022-11-24T06:39:39;8.20;99.90
26230;DHT22;13960;50.860;4.352;2022-11-24T06:42:05;8.20;99.90
26230;DHT22;13960;50.860;4.352;2022-11-24T06:47:03;8.20;99.90
26230;DHT22;13960;50.860;4.352;2022-11-24T06:49:31;8.30;99.90
26230;DHT22;13960;50.860;4.352;2022-11-24T06:51:57;8.20;99.90
26230;DHT22;13960;50.860;4.352;2022-11-24T06:56:55;8.20;99.90
26230;DHT22;13960;50.860;4.352;2022-11-24T06:59:21;8.20;99.90
26230;DHT22;13960;50.860;4.352;2022-11-24T07:01:48;8.10;99.90
26230;DHT22;13960;50.860;4.352;2022-11-24T07:04:14;8.20;99.90
26230;DHT22;13960;50.860;4.352;2022-11-24T07:06:40;8.10;99.90
26230;DHT22;13960;50.860;4.352;2022-11-24T07:09:09;8.10;99.90
26230;DHT22;13960;50.860;4.352;2022-11-24T07:11:37;8.10;99.90
26230;DHT22;13960;50.860;4.352;2022-11-24T07:14:04;8.10;99.90
26230;DHT22;13960;50.860;4.352;2022-11-24T07:16:31;8.10;99.90
26230;DHT22;13960;50.860;4.352;2022-11-24T07:18:58;8.10;99.90
26230;DHT22;13960;50.860;4.352;2022-11-24T07:21:24;8.20;99.90
26230;DHT22;13960;50.860;4.352;2022-11-24T07:23:53;8.20;99.90
26230;DHT22;13960;50.860;4.352;2022-11-24T07:26:19;8.10;99.90
26230;DHT22;13960;50.860;4.352;2022-11-24T07:28:46;8.10;99.90
26230;DHT22;13960;50.860;4.352;2022-11-24T07:31:13;8.10;99.90
26230;DHT22;13960;50.860;4.352;2022-11-24T07:33:38;8.00;99.90
26230;DHT22;13960;50.860;4.352;2022-11-24T07:36:05;8.10;99.90
26230;DHT22;13960;50.860;4.352;2022-11-24T07:38:34;8.00;99.90
26230;DHT22;13960;50.860;4.352;2022-11-24T07:41:01;8.00;99.90
26230;DHT22;13960;50.860;4.352;2022-11-24T07:43:27;8.00;99.90
26230;DHT22;13960;50.860;4.352;2022-11-24T07:45:54;8.00;99.90
26230;DHT22;13960;50.860;4.352;2022-11-24T07:48:20;8.00;99.90
26230;DHT22;13960;50.860;4.352;2022-11-24T07:50:46;8.00;99.90
26230;DHT22;13960;50.860;4.352;2022-11-24T07:53:11;8.10;99.90
26230;DHT22;13960;50.860;4.352;2022-11-24T07:55:37;8.10;99.90
26230;DHT22;13960;50.860;4.352;2022-11-24T07:58:02;8.10;99.90
26230;DHT22;13960;50.860;4.352;2022-11-24T08:00:28;8.10;99.90
26230;DHT22;13960;50.860;4.352;2022-11-24T08:02:53;8.20;99.90
26230;DHT22;13960;50.860;4.352;2022-11-24T08:05:19;8.20;99.90
26230;DHT22;13960;50.860;4.352;2022-11-24T08:07:45;8.20;99.90
26230;DHT22;13960;50.860;4.352;2022-11-24T08:10:10;8.20;99.90
26230;DHT22;13960;50.860;4.352;2022-11-24T08:12:36;8.20;99.90
26230;DHT22;13960;50.860;4.352;2022-11-24T08:15:01;8.20;99.90
26230;DHT22;13960;50.860;4.352;2022-11-24T08:17:27;8.20;99.90
26230;DHT22;13960;50.860;4.352;2022-11-24T08:19:53;8.30;99.90
26230;DHT22;13960;50.860;4.352;2022-11-24T08:22:18;8.20;99.90
26230;DHT22;13960;50.860;4.352;2022-11-24T08:24:44;8.30;99.90
26230;DHT22;13960;50.860;4.352;2022-11-24T08:27:13;8.30;99.90
26230;DHT22;13960;50.860;4.352;2022-11-24T08:29:38;8.40;99.90
26230;DHT22;13960;50.860;4.352;2022-11-24T08:32:04;8.30;99.90
26230;DHT22;13960;50.860;4.352;2022-11-24T08:34:29;8.40;99.90
26230;DHT22;13960;50.860;4.352;2022-11-24T08:36:55;8.40;99.90
26230;DHT22;13960;50.860;4.352;2022-11-24T08:39:20;8.40;99.90
26230;DHT22;13960;50.860;4.352;2022-11-24T08:41:46;8.40;99.90
26230;DHT22;13960;50.860;4.352;2022-11-24T08:44:11;8.50;99.90
26230;DHT22;13960;50.860;4.352;2022-11-24T08:46:40;8.50;99.90
26230;DHT22;13960;50.860;4.352;2022-11-24T08:49:06;8.50;99.90
26230;DHT22;13960;50.860;4.352;2022-11-24T08:51:31;8.50;99.90
26230;DHT22;13960;50.860;4.352;2022-11-24T08:53:58;8.60;99.90
26230;DHT22;13960;50.860;4.352;2022-11-24T08:56:27;8.60;99.90
26230;DHT22;13960;50.860;4.352;2022-11-24T08:58:53;8.60;99.90
26230;DHT22;13960;50.860;4.352;2022-11-24T09:01:19;8.70;99.90
26230;DHT22;13960;50.860;4.352;2022-11-24T09:03:45;8.70;99.90
26230;DHT22;13960;50.860;4.352;2022-11-24T09:06:11;8.70;99.90
26230;DHT22;13960;50.860;4.352;2022-11-24T09:08:37;8.70;99.90
26230;DHT22;13960;50.860;4.352;2022-11-24T09:11:04;8.70;99.90
26230;DHT22;13960;50.860;4.352;2022-11-24T09:13:30;8.70;99.90
26230;DHT22;13960;50.860;4.352;2022-11-24T09:15:55;8.80;99.90
26230;DHT22;13960;50.860;4.352;2022-11-24T09:18:21;8.80;99.90
26230;DHT22;13960;50.860;4.352;2022-11-24T09:20:46;9.00;99.90
26230;DHT22;13960;50.860;4.352;2022-11-24T09:23:12;8.90;99.90
26230;DHT22;13960;50.860;4.352;2022-11-24T09:25:38;9.00;99.90
26230;DHT22;13960;50.860;4.352;2022-11-24T09:28:04;9.00;99.90
26230;DHT22;13960;50.860;4.352;2022-11-24T09:30:29;9.00;99.90
26230;DHT22;13960;50.860;4.352;2022-11-24T09:32:55;9.00;99.90
26230;DHT22;13960;50.860;4.352;2022-11-24T09:35:21;9.00;99.90
26230;DHT22;13960;50.860;4.352;2022-11-24T09:37:46;9.20;99.90
26230;DHT22;13960;50.860;4.352;2022-11-24T09:40:13;9.20;99.90
26230;DHT22;13960;50.860;4.352;2022-11-24T09:42:44;9.20;99.90
26230;DHT22;13960;50.860;4.352;2022-11-24T09:45:18;9.30;99.90
26230;DHT22;13960;50.860;4.352;2022-11-24T09:50:15;9.40;99.90
26230;DHT22;13960;50.860;4.352;2022-11-24T09:52:50;9.50;99.90
26230;DHT22;13960;50.860;4.352;2022-11-24T09:55:22;9.50;99.90
26230;DHT22;13960;50.860;4.352;2022-11-24T09:57:53;9.40;99.90
26230;DHT22;13960;50.860;4.352;2022-11-24T10:00:19;9.40;99.90
26230;DHT22;13960;50.860;4.352;2022-11-24T10:02:45;9.50;99.90
26230;DHT22;13960;50.860;4.352;2022-11-24T10:05:13;9.50;99.90
26230;DHT22;13960;50.860;4.352;2022-11-24T10:07:42;9.60;99.90
26230;DHT22;13960;50.860;4.352;2022-11-24T10:15:21;9.60;99.90
26230;DHT22;13960;50.860;4.352;2022-11-24T10:20:24;9.70;99.90
26230;DHT22;13960;50.860;4.352;2022-11-24T10:25:19;9.90;99.90
26230;DHT22;13960;50.860;4.352;2022-11-24T10:27:50;9.90;99.90
26230;DHT22;13960;50.860;4.352;2022-11-24T10:30:19;10.00;99.90
26230;DHT22;13960;50.860;4.352;2022-11-24T10:32:46;9.90;99.90
26230;DHT22;13960;50.860;4.352;2022-11-24T10:35:16;10.00;99.90
26230;DHT22;13960;50.860;4.352;2022-11-24T10:37:44;10.00;99.90
26230;DHT22;13960;50.860;4.352;2022-11-24T10:42:41;10.20;99.90
26230;DHT22;13960;50.860;4.352;2022-11-24T10:45:12;10.10;99.90
26230;DHT22;13960;50.860;4.352;2022-11-24T10:47:38;10.00;99.90
26230;DHT22;13960;50.860;4.352;2022-11-24T10:52:39;10.20;99.90
26230;DHT22;13960;50.860;4.352;2022-11-24T10:55:06;10.20;99.90
26230;DHT22;13960;50.860;4.352;2022-11-24T10:57:33;10.20;99.90
26230;DHT22;13960;50.860;4.352;2022-11-24T10:59:59;10.20;99.90
26230;DHT22;13960;50.860;4.352;2022-11-24T11:02:32;10.30;99.90
26230;DHT22;13960;50.860;4.352;2022-11-24T11:04:59;10.30;99.90
26230;DHT22;13960;50.860;4.352;2022-11-24T11:07:44;10.40;99.90
26230;DHT22;13960;50.860;4.352;2022-11-24T11:10:16;10.50;99.90
26230;DHT22;13960;50.860;4.352;2022-11-24T11:12:42;10.50;99.90
26230;DHT22;13960;50.860;4.352;2022-11-24T11:15:29;10.60;99.90
26230;DHT22;13960;50.860;4.352;2022-11-24T11:17:57;10.70;99.90
26230;DHT22;13960;50.860;4.352;2022-11-24T11:20:30;10.80;99.90
26230;DHT22;13960;50.860;4.352;2022-11-24T11:22:56;10.70;99.90
26230;DHT22;13960;50.860;4.352;2022-11-24T11:25:33;10.70;99.90
26230;DHT22;13960;50.860;4.352;2022-11-24T11:30:54;10.80;99.90
26230;DHT22;13960;50.860;4.352;2022-11-24T11:33:21;10.80;99.90
26230;DHT22;13960;50.860;4.352;2022-11-24T11:35:47;10.90;99.90
26230;DHT22;13960;50.860;4.352;2022-11-24T11:38:13;10.90;99.90
26230;DHT22;13960;50.860;4.352;2022-11-24T11:40:39;10.90;99.90
26230;DHT22;13960;50.860;4.352;2022-11-24T11:46:33;11.10;99.90
26230;DHT22;13960;50.860;4.352;2022-11-24T11:48:42;11.10;99.90
26230;DHT22;13960;50.860;4.352;2022-11-24T11:53:48;11.20;99.90
26230;DHT22;13960;50.860;4.352;2022-11-24T12:03:49;11.20;99.90
26230;DHT22;13960;50.860;4.352;2022-11-24T12:11:46;11.20;99.90
26230;DHT22;13960;50.860;4.352;2022-11-24T12:16:56;11.20;99.90
26230;DHT22;13960;50.860;4.352;2022-11-24T12:19:33;11.30;99.90
26230;DHT22;13960;50.860;4.352;2022-11-24T12:26:59;11.40;99.90
26230;DHT22;13960;50.860;4.352;2022-11-24T12:32:00;11.30;99.90
26230;DHT22;13960;50.860;4.352;2022-11-24T12:39:24;11.30;99.90
26230;DHT22;13960;50.860;4.352;2022-11-24T12:49:21;11.20;99.90
26230;DHT22;13960;50.860;4.352;2022-11-24T12:51:52;11.20;99.90
26230;DHT22;13960;50.860;4.352;2022-11-24T12:54:20;11.30;99.90
26230;DHT22;13960;50.860;4.352;2022-11-24T12:56:48;11.30;99.90
26230;DHT22;13960;50.860;4.352;2022-11-24T12:59:26;11.40;99.90
26230;DHT22;13960;50.860;4.352;2022-11-24T13:04:36;11.60;99.90
26230;DHT22;13960;50.860;4.352;2022-11-24T13:07:09;11.70;99.90
26230;DHT22;13960;50.860;4.352;2022-11-24T13:09:35;11.60;99.90
26230;DHT22;13960;50.860;4.352;2022-11-24T13:12:06;11.70;99.90
26230;DHT22;13960;50.860;4.352;2022-11-24T13:14:33;11.80;99.90
26230;DHT22;13960;50.860;4.352;2022-11-24T13:17:00;11.70;99.90
26230;DHT22;13960;50.860;4.352;2022-11-24T13:19:33;11.60;99.90
26230;DHT22;13960;50.860;4.352;2022-11-24T13:24:28;11.80;99.90
26230;DHT22;13960;50.860;4.352;2022-11-24T13:29:44;11.80;99.90
26230;DHT22;13960;50.860;4.352;2022-11-24T13:34:52;11.80;99.90
26230;DHT22;13960;50.860;4.352;2022-11-24T13:39:50;11.70;99.90
26230;DHT22;13960;50.860;4.352;2022-11-24T13:42:16;11.70;99.90
26230;DHT22;13960;50.860;4.352;2022-11-24T13:44:42;11.70;99.90
26230;DHT22;13960;50.860;4.352;2022-11-24T13:49:52;11.80;99.90
26230;DHT22;13960;50.860;4.352;2022-11-24T13:55:03;12.00;99.90
26230;DHT22;13960;50.860;4.352;2022-11-24T13:57:36;11.90;99.90
26230;DHT22;13960;50.860;4.352;2022-11-24T14:00:02;11.90;99.90
26230;DHT22;13960;50.860;4.352;2022-11-24T14:02:28;11.90;99.90
26230;DHT22;13960;50.860;4.352;2022-11-24T14:04:54;12.10;99.90
26230;DHT22;13960;50.860;4.352;2022-11-24T14:07:21;12.40;99.90
26230;DHT22;13960;50.860;4.352;2022-11-24T14:09:48;12.20;99.90
26230;DHT22;13960;50.860;4.352;2022-11-24T14:12:23;12.20;99.90
26230;DHT22;13960;50.860;4.352;2022-11-24T14:14:50;12.30;99.90
26230;DHT22;13960;50.860;4.352;2022-11-24T14:17:17;12.10;99.90
26230;DHT22;13960;50.860;4.352;2022-11-24T14:19:45;12.00;99.90
26230;DHT22;13960;50.860;4.352;2022-11-24T14:22:12;12.10;99.90
26230;DHT22;13960;50.860;4.352;2022-11-24T14:24:38;12.30;99.90
26230;DHT22;13960;50.860;4.352;2022-11-24T14:27:04;12.20;99.90
26230;DHT22;13960;50.860;4.352;2022-11-24T14:29:29;12.10;99.90
26230;DHT22;13960;50.860;4.352;2022-11-24T14:31:58;12.20;99.90
26230;DHT22;13960;50.860;4.352;2022-11-24T14:34:25;12.30;99.90
26230;DHT22;13960;50.860;4.352;2022-11-24T14:36:51;12.20;99.90
26230;DHT22;13960;50.860;4.352;2022-11-24T14:39:20;12.30;99.90
26230;DHT22;13960;50.860;4.352;2022-11-24T14:42:05;12.40;99.90
26230;DHT22;13960;50.860;4.352;2022-11-24T14:47:06;13.30;99.90
26230;DHT22;13960;50.860;4.352;2022-11-24T14:49:38;13.20;99.90
26230;DHT22;13960;50.860;4.352;2022-11-24T14:52:07;12.70;99.90
26230;DHT22;13960;50.860;4.352;2022-11-24T14:54:47;12.20;99.90
26230;DHT22;13960;50.860;4.352;2022-11-24T14:57:20;12.00;99.90
26230;DHT22;13960;50.860;4.352;2022-11-24T15:00:02;12.00;99.90
26230;DHT22;13960;50.860;4.352;2022-11-24T15:02:38;11.90;99.90
26230;DHT22;13960;50.860;4.352;2022-11-24T15:05:05;11.90;99.90
26230;DHT22;13960;50.860;4.352;2022-11-24T15:07:32;11.90;99.90
26230;DHT22;13960;50.860;4.352;2022-11-24T15:10:00;11.90;99.90
26230;DHT22;13960;50.860;4.352;2022-11-24T15:12:39;11.70;99.90
26230;DHT22;13960;50.860;4.352;2022-11-24T15:15:15;11.60;99.90
26230;DHT22;13960;50.860;4.352;2022-11-24T15:17:57;11.50;99.90
26230;DHT22;13960;50.860;4.352;2022-11-24T15:20:30;11.50;99.90
26230;DHT22;13960;50.860;4.352;2022-11-24T15:25:40;11.60;99.90
26230;DHT22;13960;50.860;4.352;2022-11-24T15:28:06;11.60;99.90
26230;DHT22;13960;50.860;4.352;2022-11-24T15:30:33;11.50;99.90
26230;DHT22;13960;50.860;4.352;2022-11-24T15:32:59;11.50;99.90
26230;DHT22;13960;50.860;4.352;2022-11-24T15:35:25;11.40;99.90
26230;DHT22;13960;50.860;4.352;2022-11-24T15:37:51;11.30;99.90
26230;DHT22;13960;50.860;4.352;2022-11-24T15:40:16;11.40;99.90
26230;DHT22;13960;50.860;4.352;2022-11-24T15:42:52;11.30;99.90
26230;DHT22;13960;50.860;4.352;2022-11-24T15:45:18;11.20;99.90
26230;DHT22;13960;50.860;4.352;2022-11-24T15:47:44;11.20;99.90
26230;DHT22;13960;50.860;4.352;2022-11-24T15:50:09;11.10;99.90
26230;DHT22;13960;50.860;4.352;2022-11-24T15:52:35;11.00;99.90
26230;DHT22;13960;50.860;4.352;2022-11-24T15:55:01;10.90;99.90
26230;DHT22;13960;50.860;4.352;2022-11-24T15:57:27;11.00;99.90
26230;DHT22;13960;50.860;4.352;2022-11-24T15:59:52;11.00;99.90
26230;DHT22;13960;50.860;4.352;2022-11-24T16:02:18;11.00;99.90
26230;DHT22;13960;50.860;4.352;2022-11-24T16:04:46;10.90;99.90
26230;DHT22;13960;50.860;4.352;2022-11-24T16:07:12;10.90;99.90
26230;DHT22;13960;50.860;4.352;2022-11-24T16:09:37;10.90;99.90
26230;DHT22;13960;50.860;4.352;2022-11-24T16:12:02;10.80;99.90
26230;DHT22;13960;50.860;4.352;2022-11-24T16:14:28;10.80;99.90
26230;DHT22;13960;50.860;4.352;2022-11-24T16:16:54;10.80;99.90
26230;DHT22;13960;50.860;4.352;2022-11-24T16:19:19;10.90;99.90
26230;DHT22;13960;50.860;4.352;2022-11-24T16:21:48;10.90;99.90
26230;DHT22;13960;50.860;4.352;2022-11-24T16:24:14;10.70;99.90
26230;DHT22;13960;50.860;4.352;2022-11-24T16:26:39;10.80;99.90
26230;DHT22;13960;50.860;4.352;2022-11-24T16:29:05;10.80;99.90
26230;DHT22;13960;50.860;4.352;2022-11-24T16:31:31;10.70;99.90
26230;DHT22;13960;50.860;4.352;2022-11-24T16:33:56;10.70;99.90
26230;DHT22;13960;50.860;4.352;2022-11-24T16:36:22;10.90;99.90
26230;DHT22;13960;50.860;4.352;2022-11-24T16:38:47;10.80;99.90
26230;DHT22;13960;50.860;4.352;2022-11-24T16:41:13;10.80;99.90
26230;DHT22;13960;50.860;4.352;2022-11-24T16:43:38;10.80;99.90
26230;DHT22;13960;50.860;4.352;2022-11-24T16:48:35;10.60;99.90
26230;DHT22;13960;50.860;4.352;2022-11-24T16:51:05;10.50;99.90
26230;DHT22;13960;50.860;4.352;2022-11-24T16:53:31;10.40;99.90
26230;DHT22;13960;50.860;4.352;2022-11-24T16:55:56;10.50;99.90
26230;DHT22;13960;50.860;4.352;2022-11-24T16:58:22;10.30;99.90
26230;DHT22;13960;50.860;4.352;2022-11-24T17:00:47;10.40;99.90
26230;DHT22;13960;50.860;4.352;2022-11-24T17:03:17;10.50;99.90
26230;DHT22;13960;50.860;4.352;2022-11-24T17:05:43;10.50;99.90
26230;DHT22;13960;50.860;4.352;2022-11-24T17:08:08;10.50;99.90
26230;DHT22;13960;50.860;4.352;2022-11-24T17:10:37;10.50;99.90
26230;DHT22;13960;50.860;4.352;2022-11-24T17:13:03;10.40;99.90
26230;DHT22;13960;50.860;4.352;2022-11-24T17:15:28;10.40;99.90
26230;DHT22;13960;50.860;4.352;2022-11-24T17:17:54;10.30;99.90
26230;DHT22;13960;50.860;4.352;2022-11-24T17:20:19;10.30;99.90
26230;DHT22;13960;50.860;4.352;2022-11-24T17:22:45;10.30;99.90
26230;DHT22;13960;50.860;4.352;2022-11-24T17:25:10;10.30;99.90
26230;DHT22;13960;50.860;4.352;2022-11-24T17:27:36;10.20;99.90
26230;DHT22;13960;50.860;4.352;2022-11-24T17:30:02;10.20;99.90
26230;DHT22;13960;50.860;4.352;2022-11-24T17:32:27;10.10;99.90
26230;DHT22;13960;50.860;4.352;2022-11-24T17:34:53;10.10;99.90
26230;DHT22;13960;50.860;4.352;2022-11-24T17:37:18;10.10;99.90
26230;DHT22;13960;50.860;4.352;2022-11-24T17:39:44;10.10;99.90
26230;DHT22;13960;50.860;4.352;2022-11-24T17:42:09;10.10;99.90
26230;DHT22;13960;50.860;4.352;2022-11-24T17:44:36;10.00;99.90